メインページ
METAR-TAF:

METAR-TAF

空港 :

アクラ, ガーナ

コトカ国際空港

緯度: 05-36N, 経度: 000-10W, 海抜: 68m

現時点の気象観測

当レポートは34分前の01:00(UTC)に作成
西/南西の風 8kt
気温 27°C
湿度 89%
気圧 1012 hPa
視程: 8000m
高度1300ftの雲はほとんどない

METAR: DGAA 180100Z 24008KT 8000 FEW013 27/25 Q1012 NOSIG

時間: 01:34 (01:34 UTC)

予報

当レポートは2時間34分前の23:00(UTC)に作成
予報は18日の 00時(UTC)から 19日の 06時(UTC)まで有効
西の風 5kt
視程: 8000m
高度1200ftの雲は散在している
18日の 02時(UTC)から 18日の 06時(UTC)まで一時的に
高度1200ftの千切れ雲あり
18日の 06時(UTC)から 18日の 08時(UTC)まで徐々に
視程: 3000m
18日の 10時(UTC)から 18日の 12時(UTC)まで徐々に
の風 12kt
視程: 5000m
高度3200ftの雲はほとんどない
煙霧

TAF: DGAA 172300Z 1800/1906 26005KT 8000 SCT012 TEMPO 1802/1806 BKN012 BECMG 1806/1808 3000 BR BECMG 1810/1812 19012KT 5000 HZ FEW032

4,000以上の空港の気象観測と天気予報(METAR報とTAF報)

利用可能な観測所は地図上に黄色い丸と赤い丸で示す。

丸の上にカーソルを重ねると観測所名を参照できる。

次にクリックすると気象観測と天気予報を参照できる。

マップの切り替え:黒色「×」印の緑ボタンをクリックして拡大、「-」印の緑ボタンをクリックして縮小、緑色の三角印をクリックして隣りの地図に切り替え


METAR-TAF: